sensor_id;sensor_type;location;lat;lon;timestamp;temperature;humidity
49503;DHT22;35409;48.776;9.204;2024-02-15T00:02:06;11.50;99.90
49503;DHT22;35409;48.776;9.204;2024-02-15T00:04:32;11.40;99.90
49503;DHT22;35409;48.776;9.204;2024-02-15T00:06:59;11.40;99.90
49503;DHT22;35409;48.776;9.204;2024-02-15T00:09:25;11.40;99.90
49503;DHT22;35409;48.776;9.204;2024-02-15T00:11:51;11.40;99.90
49503;DHT22;35409;48.776;9.204;2024-02-15T00:14:16;11.40;99.90
49503;DHT22;35409;48.776;9.204;2024-02-15T00:16:42;11.40;99.90
49503;DHT22;35409;48.776;9.204;2024-02-15T00:19:08;11.40;99.90
49503;DHT22;35409;48.776;9.204;2024-02-15T00:21:33;11.40;99.90
49503;DHT22;35409;48.776;9.204;2024-02-15T00:24:00;11.40;99.90
49503;DHT22;35409;48.776;9.204;2024-02-15T00:26:27;11.40;99.90
49503;DHT22;35409;48.776;9.204;2024-02-15T00:28:52;11.40;99.90
49503;DHT22;35409;48.776;9.204;2024-02-15T00:31:18;11.50;99.90
49503;DHT22;35409;48.776;9.204;2024-02-15T00:33:44;11.50;99.90
49503;DHT22;35409;48.776;9.204;2024-02-15T00:36:10;11.50;99.90
49503;DHT22;35409;48.776;9.204;2024-02-15T00:38:36;11.50;99.90
49503;DHT22;35409;48.776;9.204;2024-02-15T00:41:02;11.50;99.90
49503;DHT22;35409;48.776;9.204;2024-02-15T00:43:28;11.50;99.90
49503;DHT22;35409;48.776;9.204;2024-02-15T00:45:53;11.60;99.90
49503;DHT22;35409;48.776;9.204;2024-02-15T00:48:19;11.60;99.90
49503;DHT22;35409;48.776;9.204;2024-02-15T00:50:44;11.60;99.90
49503;DHT22;35409;48.776;9.204;2024-02-15T00:53:10;11.60;99.90
49503;DHT22;35409;48.776;9.204;2024-02-15T00:55:35;11.50;99.90
49503;DHT22;35409;48.776;9.204;2024-02-15T00:58:01;11.60;99.90
49503;DHT22;35409;48.776;9.204;2024-02-15T01:00:27;11.50;99.90
49503;DHT22;35409;48.776;9.204;2024-02-15T01:02:54;11.50;99.90
49503;DHT22;35409;48.776;9.204;2024-02-15T01:05:19;11.50;99.90
49503;DHT22;35409;48.776;9.204;2024-02-15T01:07:45;11.50;99.90
49503;DHT22;35409;48.776;9.204;2024-02-15T01:10:11;11.50;99.90
49503;DHT22;35409;48.776;9.204;2024-02-15T01:12:37;11.50;99.90
49503;DHT22;35409;48.776;9.204;2024-02-15T01:15:03;11.40;99.90
49503;DHT22;35409;48.776;9.204;2024-02-15T01:17:29;11.40;99.90
49503;DHT22;35409;48.776;9.204;2024-02-15T01:19:55;11.40;99.90
49503;DHT22;35409;48.776;9.204;2024-02-15T01:22:20;11.40;99.90
49503;DHT22;35409;48.776;9.204;2024-02-15T01:24:49;11.40;99.90
49503;DHT22;35409;48.776;9.204;2024-02-15T01:27:14;11.30;99.90
49503;DHT22;35409;48.776;9.204;2024-02-15T01:29:40;11.40;99.90
49503;DHT22;35409;48.776;9.204;2024-02-15T01:32:06;11.40;99.90
49503;DHT22;35409;48.776;9.204;2024-02-15T01:34:31;11.40;99.90
49503;DHT22;35409;48.776;9.204;2024-02-15T01:36:57;11.40;99.90
49503;DHT22;35409;48.776;9.204;2024-02-15T01:39:23;11.30;99.90
49503;DHT22;35409;48.776;9.204;2024-02-15T01:41:49;11.30;99.90
49503;DHT22;35409;48.776;9.204;2024-02-15T01:44:19;11.30;99.90
49503;DHT22;35409;48.776;9.204;2024-02-15T01:46:47;11.30;99.90
49503;DHT22;35409;48.776;9.204;2024-02-15T01:49:14;11.20;99.90
49503;DHT22;35409;48.776;9.204;2024-02-15T01:51:41;11.20;99.90
49503;DHT22;35409;48.776;9.204;2024-02-15T01:54:10;11.10;99.90
49503;DHT22;35409;48.776;9.204;2024-02-15T01:56:36;11.00;99.90
49503;DHT22;35409;48.776;9.204;2024-02-15T01:59:03;10.90;99.90
49503;DHT22;35409;48.776;9.204;2024-02-15T02:01:30;10.80;99.90
49503;DHT22;35409;48.776;9.204;2024-02-15T02:03:58;10.60;99.90
49503;DHT22;35409;48.776;9.204;2024-02-15T02:06:24;10.50;99.90
49503;DHT22;35409;48.776;9.204;2024-02-15T02:08:50;10.40;99.90
49503;DHT22;35409;48.776;9.204;2024-02-15T02:11:16;10.20;99.90
49503;DHT22;35409;48.776;9.204;2024-02-15T02:13:41;10.10;99.90
49503;DHT22;35409;48.776;9.204;2024-02-15T02:16:40;10.00;99.90
49503;DHT22;35409;48.776;9.204;2024-02-15T02:19:06;9.90;99.90
49503;DHT22;35409;48.776;9.204;2024-02-15T02:21:35;9.80;99.90
49503;DHT22;35409;48.776;9.204;2024-02-15T02:24:03;9.70;99.90
49503;DHT22;35409;48.776;9.204;2024-02-15T02:26:33;9.70;99.90
49503;DHT22;35409;48.776;9.204;2024-02-15T02:29:00;9.60;99.90
49503;DHT22;35409;48.776;9.204;2024-02-15T02:31:33;9.60;99.90
49503;DHT22;35409;48.776;9.204;2024-02-15T02:33:59;9.50;99.90
49503;DHT22;35409;48.776;9.204;2024-02-15T02:36:26;9.40;99.90
49503;DHT22;35409;48.776;9.204;2024-02-15T02:38:52;9.30;99.90
49503;DHT22;35409;48.776;9.204;2024-02-15T02:41:17;9.30;99.90
49503;DHT22;35409;48.776;9.204;2024-02-15T02:43:45;9.20;99.90
49503;DHT22;35409;48.776;9.204;2024-02-15T02:46:11;9.10;99.90
49503;DHT22;35409;48.776;9.204;2024-02-15T02:48:40;9.10;99.90
49503;DHT22;35409;48.776;9.204;2024-02-15T02:51:07;9.10;99.90
49503;DHT22;35409;48.776;9.204;2024-02-15T02:53:32;9.10;99.90
49503;DHT22;35409;48.776;9.204;2024-02-15T02:55:58;9.00;99.90
49503;DHT22;35409;48.776;9.204;2024-02-15T02:58:24;9.00;99.90
49503;DHT22;35409;48.776;9.204;2024-02-15T03:00:50;9.00;99.90
49503;DHT22;35409;48.776;9.204;2024-02-15T03:03:17;9.00;99.90
49503;DHT22;35409;48.776;9.204;2024-02-15T03:05:44;9.00;99.90
49503;DHT22;35409;48.776;9.204;2024-02-15T03:08:11;9.00;99.90
49503;DHT22;35409;48.776;9.204;2024-02-15T03:10:38;9.10;99.90
49503;DHT22;35409;48.776;9.204;2024-02-15T03:13:05;9.00;99.90
49503;DHT22;35409;48.776;9.204;2024-02-15T03:15:31;9.00;99.90
49503;DHT22;35409;48.776;9.204;2024-02-15T03:17:58;8.90;99.90
49503;DHT22;35409;48.776;9.204;2024-02-15T03:20:24;8.90;99.90
49503;DHT22;35409;48.776;9.204;2024-02-15T03:22:54;8.80;99.90
49503;DHT22;35409;48.776;9.204;2024-02-15T03:25:20;8.80;99.90
49503;DHT22;35409;48.776;9.204;2024-02-15T03:27:49;8.70;99.90
49503;DHT22;35409;48.776;9.204;2024-02-15T03:30:17;8.70;99.90
49503;DHT22;35409;48.776;9.204;2024-02-15T03:32:43;8.70;99.90
49503;DHT22;35409;48.776;9.204;2024-02-15T03:35:08;8.60;99.90
49503;DHT22;35409;48.776;9.204;2024-02-15T03:37:34;8.60;99.90
49503;DHT22;35409;48.776;9.204;2024-02-15T03:40:05;8.50;99.90
49503;DHT22;35409;48.776;9.204;2024-02-15T03:42:31;8.40;99.90
49503;DHT22;35409;48.776;9.204;2024-02-15T03:44:57;8.30;99.90
49503;DHT22;35409;48.776;9.204;2024-02-15T03:47:22;8.20;99.90
49503;DHT22;35409;48.776;9.204;2024-02-15T03:49:49;8.20;99.90
49503;DHT22;35409;48.776;9.204;2024-02-15T03:52:14;8.10;99.90
49503;DHT22;35409;48.776;9.204;2024-02-15T03:54:40;8.10;99.90
49503;DHT22;35409;48.776;9.204;2024-02-15T03:57:08;8.00;99.90
49503;DHT22;35409;48.776;9.204;2024-02-15T03:59:34;8.00;99.90
49503;DHT22;35409;48.776;9.204;2024-02-15T04:02:00;7.90;99.90
49503;DHT22;35409;48.776;9.204;2024-02-15T04:04:28;7.90;99.90
49503;DHT22;35409;48.776;9.204;2024-02-15T04:06:55;7.90;99.90
49503;DHT22;35409;48.776;9.204;2024-02-15T04:09:21;8.00;99.90
49503;DHT22;35409;48.776;9.204;2024-02-15T04:11:47;8.00;99.90
49503;DHT22;35409;48.776;9.204;2024-02-15T04:14:18;8.00;99.90
49503;DHT22;35409;48.776;9.204;2024-02-15T04:16:44;8.10;99.90
49503;DHT22;35409;48.776;9.204;2024-02-15T04:19:12;8.10;99.90
49503;DHT22;35409;48.776;9.204;2024-02-15T04:21:38;8.20;99.90
49503;DHT22;35409;48.776;9.204;2024-02-15T04:24:05;8.20;99.90
49503;DHT22;35409;48.776;9.204;2024-02-15T04:26:31;8.30;99.90
49503;DHT22;35409;48.776;9.204;2024-02-15T04:28:57;8.50;99.90
49503;DHT22;35409;48.776;9.204;2024-02-15T04:31:24;8.60;99.90
49503;DHT22;35409;48.776;9.204;2024-02-15T04:33:53;8.70;99.90
49503;DHT22;35409;48.776;9.204;2024-02-15T04:36:18;8.80;99.90
49503;DHT22;35409;48.776;9.204;2024-02-15T04:38:52;8.90;99.90
49503;DHT22;35409;48.776;9.204;2024-02-15T04:41:18;9.10;99.90
49503;DHT22;35409;48.776;9.204;2024-02-15T04:43:50;9.20;99.90
49503;DHT22;35409;48.776;9.204;2024-02-15T04:46:16;9.30;99.90
49503;DHT22;35409;48.776;9.204;2024-02-15T04:48:42;9.40;99.90
49503;DHT22;35409;48.776;9.204;2024-02-15T04:51:09;9.60;99.90
49503;DHT22;35409;48.776;9.204;2024-02-15T04:53:36;9.70;99.90
49503;DHT22;35409;48.776;9.204;2024-02-15T04:56:04;9.80;99.90
49503;DHT22;35409;48.776;9.204;2024-02-15T04:58:35;9.80;99.90
49503;DHT22;35409;48.776;9.204;2024-02-15T05:01:02;9.90;99.90
49503;DHT22;35409;48.776;9.204;2024-02-15T05:03:31;9.90;99.90
49503;DHT22;35409;48.776;9.204;2024-02-15T05:06:00;9.90;99.90
49503;DHT22;35409;48.776;9.204;2024-02-15T05:08:26;9.90;99.90
49503;DHT22;35409;48.776;9.204;2024-02-15T05:10:51;9.90;99.90
49503;DHT22;35409;48.776;9.204;2024-02-15T05:13:23;9.80;99.90
49503;DHT22;35409;48.776;9.204;2024-02-15T05:15:49;9.80;99.90
49503;DHT22;35409;48.776;9.204;2024-02-15T05:18:15;9.80;99.90
49503;DHT22;35409;48.776;9.204;2024-02-15T05:20:42;9.70;99.90
49503;DHT22;35409;48.776;9.204;2024-02-15T05:23:08;9.70;99.90
49503;DHT22;35409;48.776;9.204;2024-02-15T05:25:33;9.60;99.90
49503;DHT22;35409;48.776;9.204;2024-02-15T05:28:01;9.70;99.90
49503;DHT22;35409;48.776;9.204;2024-02-15T05:30:29;9.70;99.90
49503;DHT22;35409;48.776;9.204;2024-02-15T05:32:58;9.80;99.90
49503;DHT22;35409;48.776;9.204;2024-02-15T05:35:23;9.90;99.90
49503;DHT22;35409;48.776;9.204;2024-02-15T05:37:50;9.90;99.90
49503;DHT22;35409;48.776;9.204;2024-02-15T05:40:18;10.00;99.90
49503;DHT22;35409;48.776;9.204;2024-02-15T05:42:45;10.10;99.90
49503;DHT22;35409;48.776;9.204;2024-02-15T05:47:50;10.20;99.90
49503;DHT22;35409;48.776;9.204;2024-02-15T05:50:15;10.30;99.90
49503;DHT22;35409;48.776;9.204;2024-02-15T05:52:41;10.30;99.90
49503;DHT22;35409;48.776;9.204;2024-02-15T05:55:07;10.30;99.90
49503;DHT22;35409;48.776;9.204;2024-02-15T05:57:33;10.40;99.90
49503;DHT22;35409;48.776;9.204;2024-02-15T05:59:59;10.40;99.90
49503;DHT22;35409;48.776;9.204;2024-02-15T06:02:28;10.40;99.90
49503;DHT22;35409;48.776;9.204;2024-02-15T06:04:55;10.40;99.90
49503;DHT22;35409;48.776;9.204;2024-02-15T06:07:26;10.40;99.90
49503;DHT22;35409;48.776;9.204;2024-02-15T06:09:52;10.50;99.90
49503;DHT22;35409;48.776;9.204;2024-02-15T06:12:17;10.50;99.90
49503;DHT22;35409;48.776;9.204;2024-02-15T06:14:43;10.50;99.90
49503;DHT22;35409;48.776;9.204;2024-02-15T06:17:08;10.50;99.90
49503;DHT22;35409;48.776;9.204;2024-02-15T06:19:36;10.50;99.90
49503;DHT22;35409;48.776;9.204;2024-02-15T06:22:01;10.50;99.90
49503;DHT22;35409;48.776;9.204;2024-02-15T06:24:27;10.50;99.90
49503;DHT22;35409;48.776;9.204;2024-02-15T06:26:53;10.50;99.90
49503;DHT22;35409;48.776;9.204;2024-02-15T06:29:25;10.50;99.90
49503;DHT22;35409;48.776;9.204;2024-02-15T06:32:17;10.50;99.90
49503;DHT22;35409;48.776;9.204;2024-02-15T06:35:01;10.40;99.90
49503;DHT22;35409;48.776;9.204;2024-02-15T06:37:45;10.40;99.90
49503;DHT22;35409;48.776;9.204;2024-02-15T06:40:29;10.30;99.90
49503;DHT22;35409;48.776;9.204;2024-02-15T06:42:56;10.30;99.90
49503;DHT22;35409;48.776;9.204;2024-02-15T06:45:21;10.30;99.90
49503;DHT22;35409;48.776;9.204;2024-02-15T06:47:48;10.20;99.90
49503;DHT22;35409;48.776;9.204;2024-02-15T06:50:14;10.20;99.90
49503;DHT22;35409;48.776;9.204;2024-02-15T06:52:40;10.10;99.90
49503;DHT22;35409;48.776;9.204;2024-02-15T06:55:07;10.10;99.90
49503;DHT22;35409;48.776;9.204;2024-02-15T06:57:34;10.00;99.90
49503;DHT22;35409;48.776;9.204;2024-02-15T07:00:06;10.00;99.90
49503;DHT22;35409;48.776;9.204;2024-02-15T07:02:33;9.90;99.90
49503;DHT22;35409;48.776;9.204;2024-02-15T07:04:59;9.90;99.90
49503;DHT22;35409;48.776;9.204;2024-02-15T07:07:25;9.90;99.90
49503;DHT22;35409;48.776;9.204;2024-02-15T07:09:51;9.90;99.90
49503;DHT22;35409;48.776;9.204;2024-02-15T07:12:16;10.00;99.90
49503;DHT22;35409;48.776;9.204;2024-02-15T07:14:42;10.00;99.90
49503;DHT22;35409;48.776;9.204;2024-02-15T07:17:08;10.00;99.90
49503;DHT22;35409;48.776;9.204;2024-02-15T07:19:34;10.00;99.90
49503;DHT22;35409;48.776;9.204;2024-02-15T07:22:02;10.00;99.90
49503;DHT22;35409;48.776;9.204;2024-02-15T07:24:29;10.00;99.90
49503;DHT22;35409;48.776;9.204;2024-02-15T07:26:54;10.00;99.90
49503;DHT22;35409;48.776;9.204;2024-02-15T07:29:23;10.00;99.90
49503;DHT22;35409;48.776;9.204;2024-02-15T07:31:49;9.90;99.90
49503;DHT22;35409;48.776;9.204;2024-02-15T07:34:15;9.90;99.90
49503;DHT22;35409;48.776;9.204;2024-02-15T07:36:42;9.80;99.90
49503;DHT22;35409;48.776;9.204;2024-02-15T07:39:08;9.80;99.90
49503;DHT22;35409;48.776;9.204;2024-02-15T07:41:38;9.80;99.90
49503;DHT22;35409;48.776;9.204;2024-02-15T07:44:04;9.90;99.90
49503;DHT22;35409;48.776;9.204;2024-02-15T07:46:30;9.90;99.90
49503;DHT22;35409;48.776;9.204;2024-02-15T07:48:55;9.90;99.90
49503;DHT22;35409;48.776;9.204;2024-02-15T07:51:22;10.00;99.90
49503;DHT22;35409;48.776;9.204;2024-02-15T07:53:48;10.10;99.90
49503;DHT22;35409;48.776;9.204;2024-02-15T07:56:16;10.20;99.90
49503;DHT22;35409;48.776;9.204;2024-02-15T07:58:46;10.30;99.90
49503;DHT22;35409;48.776;9.204;2024-02-15T08:01:16;10.50;99.90
49503;DHT22;35409;48.776;9.204;2024-02-15T08:03:42;10.50;99.90
49503;DHT22;35409;48.776;9.204;2024-02-15T08:06:12;10.70;99.90
49503;DHT22;35409;48.776;9.204;2024-02-15T08:08:39;10.80;99.90
49503;DHT22;35409;48.776;9.204;2024-02-15T08:11:09;11.00;99.90
49503;DHT22;35409;48.776;9.204;2024-02-15T08:16:11;11.30;99.90
49503;DHT22;35409;48.776;9.204;2024-02-15T08:18:38;11.30;99.90
49503;DHT22;35409;48.776;9.204;2024-02-15T08:21:05;11.40;99.90
49503;DHT22;35409;48.776;9.204;2024-02-15T08:23:30;11.50;99.90
49503;DHT22;35409;48.776;9.204;2024-02-15T08:25:57;11.60;99.90
49503;DHT22;35409;48.776;9.204;2024-02-15T08:28:23;11.70;99.90
49503;DHT22;35409;48.776;9.204;2024-02-15T08:30:48;11.80;99.90
49503;DHT22;35409;48.776;9.204;2024-02-15T08:33:14;11.90;99.90
49503;DHT22;35409;48.776;9.204;2024-02-15T08:35:40;11.90;99.90
49503;DHT22;35409;48.776;9.204;2024-02-15T08:38:06;12.00;99.90
49503;DHT22;35409;48.776;9.204;2024-02-15T08:40:32;12.10;99.90
49503;DHT22;35409;48.776;9.204;2024-02-15T08:42:58;12.20;99.90
49503;DHT22;35409;48.776;9.204;2024-02-15T08:45:23;12.30;99.90
49503;DHT22;35409;48.776;9.204;2024-02-15T08:47:50;12.40;99.90
49503;DHT22;35409;48.776;9.204;2024-02-15T08:50:18;12.50;99.90
49503;DHT22;35409;48.776;9.204;2024-02-15T08:52:44;12.60;99.90
49503;DHT22;35409;48.776;9.204;2024-02-15T08:55:11;12.70;99.90
49503;DHT22;35409;48.776;9.204;2024-02-15T08:57:39;12.80;99.90
49503;DHT22;35409;48.776;9.204;2024-02-15T09:00:07;12.90;99.90
49503;DHT22;35409;48.776;9.204;2024-02-15T09:02:39;12.90;99.90
49503;DHT22;35409;48.776;9.204;2024-02-15T09:05:06;12.80;99.90
49503;DHT22;35409;48.776;9.204;2024-02-15T09:07:32;12.90;99.90
49503;DHT22;35409;48.776;9.204;2024-02-15T09:09:58;12.80;99.90
49503;DHT22;35409;48.776;9.204;2024-02-15T09:12:24;12.80;99.90
49503;DHT22;35409;48.776;9.204;2024-02-15T09:14:49;12.80;99.90
49503;DHT22;35409;48.776;9.204;2024-02-15T09:17:15;12.80;99.90
49503;DHT22;35409;48.776;9.204;2024-02-15T09:19:40;12.80;99.90
49503;DHT22;35409;48.776;9.204;2024-02-15T09:22:07;12.80;99.90
49503;DHT22;35409;48.776;9.204;2024-02-15T09:24:33;12.80;99.90
49503;DHT22;35409;48.776;9.204;2024-02-15T09:27:00;12.80;99.90
49503;DHT22;35409;48.776;9.204;2024-02-15T09:29:30;12.90;99.90
49503;DHT22;35409;48.776;9.204;2024-02-15T09:31:58;12.80;99.90
49503;DHT22;35409;48.776;9.204;2024-02-15T09:34:24;12.80;99.90
49503;DHT22;35409;48.776;9.204;2024-02-15T09:36:50;12.80;99.90
49503;DHT22;35409;48.776;9.204;2024-02-15T09:39:16;12.80;99.90
49503;DHT22;35409;48.776;9.204;2024-02-15T09:41:43;12.90;99.90
49503;DHT22;35409;48.776;9.204;2024-02-15T09:44:09;13.00;99.90
49503;DHT22;35409;48.776;9.204;2024-02-15T09:46:36;13.00;99.90
49503;DHT22;35409;48.776;9.204;2024-02-15T09:49:03;13.00;99.90
49503;DHT22;35409;48.776;9.204;2024-02-15T09:51:30;13.10;99.90
49503;DHT22;35409;48.776;9.204;2024-02-15T09:53:59;13.10;99.90
49503;DHT22;35409;48.776;9.204;2024-02-15T09:56:26;13.20;99.90
49503;DHT22;35409;48.776;9.204;2024-02-15T09:58:54;13.30;99.90
49503;DHT22;35409;48.776;9.204;2024-02-15T10:01:22;13.30;99.90
49503;DHT22;35409;48.776;9.204;2024-02-15T10:03:49;13.40;99.90
49503;DHT22;35409;48.776;9.204;2024-02-15T10:06:18;13.40;99.90
49503;DHT22;35409;48.776;9.204;2024-02-15T10:08:44;13.50;99.90
49503;DHT22;35409;48.776;9.204;2024-02-15T10:11:12;13.50;99.90
49503;DHT22;35409;48.776;9.204;2024-02-15T10:13:38;13.60;99.90
49503;DHT22;35409;48.776;9.204;2024-02-15T10:16:15;13.60;99.90
49503;DHT22;35409;48.776;9.204;2024-02-15T10:18:42;13.70;99.90
49503;DHT22;35409;48.776;9.204;2024-02-15T10:21:07;13.80;99.90
49503;DHT22;35409;48.776;9.204;2024-02-15T10:23:33;13.90;99.90
49503;DHT22;35409;48.776;9.204;2024-02-15T10:25:59;14.00;99.90
49503;DHT22;35409;48.776;9.204;2024-02-15T10:28:26;14.10;99.90
49503;DHT22;35409;48.776;9.204;2024-02-15T10:30:54;14.20;99.90
49503;DHT22;35409;48.776;9.204;2024-02-15T10:33:26;14.20;99.90
49503;DHT22;35409;48.776;9.204;2024-02-15T10:36:10;14.30;99.90
49503;DHT22;35409;48.776;9.204;2024-02-15T10:38:37;14.30;99.90
49503;DHT22;35409;48.776;9.204;2024-02-15T10:41:03;14.30;99.90
49503;DHT22;35409;48.776;9.204;2024-02-15T10:43:35;14.50;99.90
49503;DHT22;35409;48.776;9.204;2024-02-15T10:46:03;14.60;99.90
49503;DHT22;35409;48.776;9.204;2024-02-15T10:48:29;14.70;99.90
49503;DHT22;35409;48.776;9.204;2024-02-15T10:50:59;14.80;99.90
49503;DHT22;35409;48.776;9.204;2024-02-15T10:53:28;14.90;99.90
49503;DHT22;35409;48.776;9.204;2024-02-15T10:58:49;15.10;99.90
49503;DHT22;35409;48.776;9.204;2024-02-15T11:01:17;15.20;99.90
49503;DHT22;35409;48.776;9.204;2024-02-15T11:03:57;15.40;99.90
49503;DHT22;35409;48.776;9.204;2024-02-15T11:06:26;15.40;99.90
49503;DHT22;35409;48.776;9.204;2024-02-15T11:08:53;15.50;99.90
49503;DHT22;35409;48.776;9.204;2024-02-15T11:11:19;15.50;99.90
49503;DHT22;35409;48.776;9.204;2024-02-15T11:13:46;15.60;99.90
49503;DHT22;35409;48.776;9.204;2024-02-15T11:16:42;15.70;99.90
49503;DHT22;35409;48.776;9.204;2024-02-15T11:21:57;15.80;99.90
49503;DHT22;35409;48.776;9.204;2024-02-15T11:24:32;15.90;99.90
49503;DHT22;35409;48.776;9.204;2024-02-15T11:27:04;16.00;99.90
49503;DHT22;35409;48.776;9.204;2024-02-15T11:32:34;16.10;99.90
49503;DHT22;35409;48.776;9.204;2024-02-15T11:35:04;16.20;99.90
49503;DHT22;35409;48.776;9.204;2024-02-15T11:37:52;16.40;99.90
49503;DHT22;35409;48.776;9.204;2024-02-15T11:40:25;16.60;99.90
49503;DHT22;35409;48.776;9.204;2024-02-15T11:42:53;16.60;99.90
49503;DHT22;35409;48.776;9.204;2024-02-15T11:45:20;16.70;99.90
49503;DHT22;35409;48.776;9.204;2024-02-15T11:47:50;16.80;99.90
49503;DHT22;35409;48.776;9.204;2024-02-15T11:50:20;16.70;99.90
49503;DHT22;35409;48.776;9.204;2024-02-15T11:52:52;16.80;99.90
49503;DHT22;35409;48.776;9.204;2024-02-15T11:55:27;16.90;99.90
49503;DHT22;35409;48.776;9.204;2024-02-15T11:57:58;16.90;99.90
49503;DHT22;35409;48.776;9.204;2024-02-15T12:00:42;17.00;99.90
49503;DHT22;35409;48.776;9.204;2024-02-15T12:03:26;17.10;99.90
49503;DHT22;35409;48.776;9.204;2024-02-15T12:06:10;17.20;99.90
49503;DHT22;35409;48.776;9.204;2024-02-15T12:08:55;17.30;99.90
49503;DHT22;35409;48.776;9.204;2024-02-15T12:11:40;17.20;99.90
49503;DHT22;35409;48.776;9.204;2024-02-15T12:14:24;17.20;99.90
49503;DHT22;35409;48.776;9.204;2024-02-15T12:19:56;17.80;99.90
49503;DHT22;35409;48.776;9.204;2024-02-15T12:22:31;17.70;99.90
49503;DHT22;35409;48.776;9.204;2024-02-15T12:24:58;17.80;99.90
49503;DHT22;35409;48.776;9.204;2024-02-15T12:27:26;17.80;99.90
49503;DHT22;35409;48.776;9.204;2024-02-15T12:29:56;17.80;99.90
49503;DHT22;35409;48.776;9.204;2024-02-15T12:32:23;17.90;99.90
49503;DHT22;35409;48.776;9.204;2024-02-15T12:34:50;18.00;99.90
49503;DHT22;35409;48.776;9.204;2024-02-15T12:37:22;18.00;99.90
49503;DHT22;35409;48.776;9.204;2024-02-15T12:39:49;18.00;99.90
49503;DHT22;35409;48.776;9.204;2024-02-15T12:42:15;18.00;99.90
49503;DHT22;35409;48.776;9.204;2024-02-15T12:44:44;18.10;99.90
49503;DHT22;35409;48.776;9.204;2024-02-15T12:47:23;18.20;99.90
49503;DHT22;35409;48.776;9.204;2024-02-15T12:49:50;18.20;99.90
49503;DHT22;35409;48.776;9.204;2024-02-15T12:52:36;18.40;99.90
49503;DHT22;35409;48.776;9.204;2024-02-15T12:55:21;18.60;99.90
49503;DHT22;35409;48.776;9.204;2024-02-15T12:57:49;18.90;99.90
49503;DHT22;35409;48.776;9.204;2024-02-15T18:49:44;12.10;99.90
49503;DHT22;35409;48.776;9.204;2024-02-15T18:52:09;11.90;99.90
49503;DHT22;35409;48.776;9.204;2024-02-15T18:54:37;11.80;99.90
49503;DHT22;35409;48.776;9.204;2024-02-15T18:57:06;11.60;99.90
49503;DHT22;35409;48.776;9.204;2024-02-15T18:59:34;11.60;99.90
49503;DHT22;35409;48.776;9.204;2024-02-15T19:02:02;11.50;99.90
49503;DHT22;35409;48.776;9.204;2024-02-15T19:04:27;11.40;99.90
49503;DHT22;35409;48.776;9.204;2024-02-15T19:06:53;11.40;99.90
49503;DHT22;35409;48.776;9.204;2024-02-15T19:09:18;11.30;99.90
49503;DHT22;35409;48.776;9.204;2024-02-15T19:11:45;11.30;99.90
49503;DHT22;35409;48.776;9.204;2024-02-15T19:14:14;11.20;99.90
49503;DHT22;35409;48.776;9.204;2024-02-15T19:16:41;11.10;99.90
49503;DHT22;35409;48.776;9.204;2024-02-15T19:19:07;11.00;99.90
49503;DHT22;35409;48.776;9.204;2024-02-15T19:21:37;11.00;99.90
49503;DHT22;35409;48.776;9.204;2024-02-15T19:24:04;11.10;99.90
49503;DHT22;35409;48.776;9.204;2024-02-15T19:26:29;11.00;99.90
49503;DHT22;35409;48.776;9.204;2024-02-15T19:28:55;11.10;99.90
49503;DHT22;35409;48.776;9.204;2024-02-15T19:31:20;11.20;99.90
49503;DHT22;35409;48.776;9.204;2024-02-15T19:33:46;11.20;99.90
49503;DHT22;35409;48.776;9.204;2024-02-15T19:36:14;11.20;99.90
49503;DHT22;35409;48.776;9.204;2024-02-15T19:38:40;11.20;99.90
49503;DHT22;35409;48.776;9.204;2024-02-15T19:41:05;11.10;99.90
49503;DHT22;35409;48.776;9.204;2024-02-15T19:43:31;11.10;99.90
49503;DHT22;35409;48.776;9.204;2024-02-15T19:45:57;11.10;99.90
49503;DHT22;35409;48.776;9.204;2024-02-15T19:48:23;11.10;99.90
49503;DHT22;35409;48.776;9.204;2024-02-15T19:50:49;11.10;99.90
49503;DHT22;35409;48.776;9.204;2024-02-15T19:53:14;11.00;99.90
49503;DHT22;35409;48.776;9.204;2024-02-15T19:55:40;11.00;99.90
49503;DHT22;35409;48.776;9.204;2024-02-15T19:58:06;11.00;99.90
49503;DHT22;35409;48.776;9.204;2024-02-15T20:00:31;10.90;99.90
49503;DHT22;35409;48.776;9.204;2024-02-15T20:02:57;10.90;99.90
49503;DHT22;35409;48.776;9.204;2024-02-15T20:05:23;10.90;99.90
49503;DHT22;35409;48.776;9.204;2024-02-15T20:07:49;10.80;99.90
49503;DHT22;35409;48.776;9.204;2024-02-15T20:10:15;10.80;99.90
49503;DHT22;35409;48.776;9.204;2024-02-15T20:12:40;10.70;99.90
49503;DHT22;35409;48.776;9.204;2024-02-15T20:15:06;10.70;99.90
49503;DHT22;35409;48.776;9.204;2024-02-15T20:17:36;10.70;99.90
49503;DHT22;35409;48.776;9.204;2024-02-15T20:20:02;10.70;99.90
49503;DHT22;35409;48.776;9.204;2024-02-15T20:22:31;10.70;99.90
49503;DHT22;35409;48.776;9.204;2024-02-15T20:24:57;10.70;99.90
49503;DHT22;35409;48.776;9.204;2024-02-15T20:27:25;10.70;99.90
49503;DHT22;35409;48.776;9.204;2024-02-15T20:29:51;10.60;99.90
49503;DHT22;35409;48.776;9.204;2024-02-15T20:32:16;10.60;99.90
49503;DHT22;35409;48.776;9.204;2024-02-15T20:34:46;10.60;99.90
49503;DHT22;35409;48.776;9.204;2024-02-15T20:39:38;10.70;99.90
49503;DHT22;35409;48.776;9.204;2024-02-15T20:42:04;10.70;99.90
49503;DHT22;35409;48.776;9.204;2024-02-15T20:44:30;10.70;99.90
49503;DHT22;35409;48.776;9.204;2024-02-15T20:46:56;10.70;99.90
49503;DHT22;35409;48.776;9.204;2024-02-15T20:49:21;10.80;99.90
49503;DHT22;35409;48.776;9.204;2024-02-15T20:51:47;10.80;99.90
49503;DHT22;35409;48.776;9.204;2024-02-15T20:54:13;10.70;99.90
49503;DHT22;35409;48.776;9.204;2024-02-15T20:56:38;10.70;99.90
49503;DHT22;35409;48.776;9.204;2024-02-15T20:59:06;10.70;99.90
49503;DHT22;35409;48.776;9.204;2024-02-15T21:01:32;10.70;99.90
49503;DHT22;35409;48.776;9.204;2024-02-15T21:03:57;10.60;99.90
49503;DHT22;35409;48.776;9.204;2024-02-15T21:06:23;10.60;99.90
49503;DHT22;35409;48.776;9.204;2024-02-15T21:08:51;10.60;99.90
49503;DHT22;35409;48.776;9.204;2024-02-15T21:11:22;10.60;99.90
49503;DHT22;35409;48.776;9.204;2024-02-15T21:13:52;10.60;99.90
49503;DHT22;35409;48.776;9.204;2024-02-15T21:16:22;10.60;99.90
49503;DHT22;35409;48.776;9.204;2024-02-15T21:18:49;10.60;99.90
49503;DHT22;35409;48.776;9.204;2024-02-15T21:21:18;10.50;99.90
49503;DHT22;35409;48.776;9.204;2024-02-15T21:23:44;10.50;99.90
49503;DHT22;35409;48.776;9.204;2024-02-15T21:26:10;10.50;99.90
49503;DHT22;35409;48.776;9.204;2024-02-15T21:28:36;10.50;99.90
49503;DHT22;35409;48.776;9.204;2024-02-15T21:31:09;10.50;99.90
49503;DHT22;35409;48.776;9.204;2024-02-15T21:33:43;10.40;99.90
49503;DHT22;35409;48.776;9.204;2024-02-15T21:36:10;10.40;99.90
49503;DHT22;35409;48.776;9.204;2024-02-15T21:38:36;10.30;99.90
49503;DHT22;35409;48.776;9.204;2024-02-15T21:41:03;10.30;99.90
49503;DHT22;35409;48.776;9.204;2024-02-15T21:43:30;10.20;99.90
49503;DHT22;35409;48.776;9.204;2024-02-15T21:45:55;10.10;99.90
49503;DHT22;35409;48.776;9.204;2024-02-15T21:48:22;10.00;99.90